Arlington, WA

7:38 PM PDT on September 16, 2014 (GMT -0700)
Snohomish County | Change Station
CLOSE
Current Station
Airport
Location: Everett,
Elevation: 604 ft
Nearby Weather Stations

Elev 604 ft 47.91 °N, 122.28 °W | Updated 45 minutes ago

Mostly Cloudy
Mostly Cloudy
70 °F
Feels Like 70 °F
N
8
Wind Variable Wind from SSW

Today
High -- | Low -- °F
--% Chance of Precip.
Yesterday
High -- | Low -- °F
Precip. -- in
6:46 AM 7:18 PM
Last Quarter, 40% visible
Pressure 29.88 in
Visibility 10.0 miles
Clouds Clear
Dew Point 54 °F
Humidity 56%
Rainfall 0.00 in
Snow Depth 0 in , 0 in , 0 in
UV 0 out of 12
Pollen 1.10 out of 12
PM2.5 Moderate
Flu Activity Not available.
METAR KPAE 170153Z 21007KT 10SM CLR 21/12 A2988

More Conditions Fewer Conditions

Pressure 29.88 in
Visibility 10.0 miles
Clouds Clear
Dew Point 54 °F
Humidity 56%
Rainfall 0.00 in
Snow Depth 0 in , 0 in , 0 in
UV 0 out of 12
Pollen 1.10 out of 12
PM2.5 Moderate
Flu Activity Not available.
METAR KPAE 170153Z 21007KT 10SM CLR 21/12 A2988

More Conditions Fewer Conditions

10-Day Weather Forecast

Almanac

Astronomy

Sep. 16, 2014 Rise Set
Actual Time 6:46 AM PDT 7:18 PM PDT
Civil Twilight 6:15 AM PDT 7:49 PM PDT
Nautical Twilight 5:37 AM PDT 8:26 PM PDT
Astronomical Twilight 4:59 AM PDT 9:04 PM PDT
Moon No Moon Rise 3:05 PM PDT (9/16)
Length of Visible Light 13h 34m
Length of Day
12h 31m
Tomorrow will be 3m 28s shorter.
Last Quarter, 40% of the Moon is Illuminated
Today
Last Quarter
Sep 24
New
Oct 1
First Quarter
Oct 8
Full
Oct 15
Last Quarter

Today's Extremes

State Highs State Lows

Community

WunderPhotos

Upload Photos

1,753,949 photos uploaded!

Nearby

Air Quality

  Air Quality AQ Index Pollutant
Yesterday Good
OZONE
Yesterday Good
PM2.5
Current Moderate
PM2.5
Tuesday Good
OZONE
Tuesday Good
PM2.5
Wednesday Good
OZONE
Wednesday Good
PM2.5
Thursday Good
OZONE
Thursday Good
PM2.5
Friday Good
OZONE
Friday Good
PM2.5
Saturday Good
OZONE
Saturday Good
PM2.5

Snow Depth

Station Depth Elevation
Grouse Camp 0 in 5380 ft
Surprise Lakes 0 in 4250 ft
Harts Pass 0 in 6500 ft
Moses Mountain 1 in 5300 ft
Spruce Springs 0 in 5700 ft

Earthquake Activity

City Distance Mag. Time & Date
Morton, Washington 129 miles 3.0 5:43 AM PDT
2014-09-16
Minimum magnitude displayed is 2.5.

Coastal Water Temperatures

Place Temperature
Port Townsend, WA 53.1 °F
Seattle, WA 55.9 °F
Friday Harbor, WA 53.1 °F
Tacoma, WA 55.9 °F

Nearby Weather Stations